createdAt,value
2019-02-23T00:01:15.568Z,24.72
2019-02-23T00:03:44.520Z,27.58
2019-02-23T00:06:13.435Z,25.85
2019-02-23T00:08:42.288Z,26.87
2019-02-23T00:11:11.340Z,24.67
2019-02-23T00:13:40.335Z,24.47
2019-02-23T00:16:09.451Z,25.30
2019-02-23T00:18:38.569Z,25.35
2019-02-23T00:21:07.817Z,25.60
2019-02-23T00:23:36.700Z,25.30
2019-02-23T00:26:05.564Z,25.20
2019-02-23T00:28:34.517Z,24.55
2019-02-23T00:31:04.693Z,24.55
2019-02-23T00:33:33.549Z,26.12
2019-02-23T00:36:02.392Z,25.20
2019-02-23T00:38:31.660Z,24.25
2019-02-23T00:41:00.860Z,26.65
2019-02-23T00:43:29.980Z,24.50
2019-02-23T00:45:58.936Z,27.30
2019-02-23T00:48:27.912Z,24.12
2019-02-23T00:50:56.832Z,24.57
2019-02-23T00:53:25.811Z,24.70
2019-02-23T00:55:54.752Z,26.23
2019-02-23T00:58:24.004Z,25.75
2019-02-23T01:00:52.961Z,24.57
2019-02-23T01:03:21.896Z,23.60
2019-02-23T01:05:50.764Z,24.63
2019-02-23T01:08:19.749Z,24.00
2019-02-23T01:10:57.805Z,23.07
2019-02-23T01:13:19.687Z,26.12
2019-02-23T01:15:48.648Z,23.57
2019-02-23T01:18:17.586Z,24.40
2019-02-23T01:20:46.497Z,24.47
2019-02-23T01:23:15.409Z,26.00
2019-02-23T01:25:44.412Z,28.20
2019-02-23T01:28:13.272Z,26.15
2019-02-23T01:30:42.340Z,26.30
2019-02-23T01:33:11.346Z,25.88
2019-02-23T01:35:40.275Z,27.58
2019-02-23T01:38:09.228Z,28.73
2019-02-23T01:40:38.556Z,27.48
2019-02-23T01:43:07.489Z,25.37
2019-02-23T01:45:42.419Z,26.17
2019-02-23T01:48:07.686Z,27.43
2019-02-23T01:50:36.591Z,27.37
2019-02-23T01:53:05.651Z,27.52
2019-02-23T01:55:34.884Z,28.17
2019-02-23T01:58:03.875Z,27.25
2019-02-23T02:00:33.456Z,26.68
2019-02-23T02:03:02.389Z,26.77
2019-02-23T02:05:31.330Z,26.25
2019-02-23T02:08:00.687Z,26.60
2019-02-23T02:10:30.171Z,26.10
2019-02-23T02:12:59.164Z,28.12
2019-02-23T02:15:28.236Z,26.07
2019-02-23T02:17:57.263Z,27.35
2019-02-23T02:20:26.112Z,25.77
2019-02-23T02:22:55.004Z,28.83
2019-02-23T02:25:24.019Z,26.80
2019-02-23T02:27:53.024Z,27.93
2019-02-23T02:30:22.588Z,26.27
2019-02-23T02:32:51.908Z,26.27
2019-02-23T02:35:20.858Z,27.15
2019-02-23T02:37:50.187Z,25.32
2019-02-23T02:40:19.235Z,26.80
2019-02-23T02:42:48.148Z,26.73
2019-02-23T02:45:17.202Z,27.62
2019-02-23T02:47:46.143Z,26.45
2019-02-23T02:50:23.725Z,27.00
2019-02-23T02:52:45.682Z,26.02
2019-02-23T02:55:14.544Z,25.70
2019-02-23T02:57:43.750Z,27.58
2019-02-23T03:00:13.388Z,26.33
2019-02-23T03:02:42.316Z,26.33
2019-02-23T03:05:11.306Z,25.82
2019-02-23T03:07:40.392Z,25.62
2019-02-23T03:10:09.380Z,26.25
2019-02-23T03:12:38.238Z,26.90
2019-02-23T03:15:07.672Z,25.68
2019-02-23T03:17:36.594Z,24.85
2019-02-23T03:20:06.649Z,27.17
2019-02-23T03:22:35.540Z,25.95
2019-02-23T03:25:04.764Z,27.25
2019-02-23T03:27:34.104Z,25.37
2019-02-23T03:30:03.017Z,28.00
2019-02-23T03:32:33.562Z,25.85
2019-02-23T03:35:02.436Z,25.55
2019-02-23T03:37:31.395Z,26.62
2019-02-23T03:40:00.398Z,26.23
2019-02-23T03:42:29.540Z,27.77
2019-02-23T03:44:58.444Z,25.17
2019-02-23T03:47:27.449Z,25.62
2019-02-23T03:49:56.623Z,26.10
2019-02-23T03:52:25.664Z,26.50
2019-02-23T03:54:54.514Z,26.80
2019-02-23T03:57:23.497Z,28.13
2019-02-23T03:59:52.526Z,26.27
2019-02-23T04:02:21.376Z,27.00
2019-02-23T04:04:50.311Z,26.65
2019-02-23T04:07:19.268Z,27.80
2019-02-23T04:09:48.289Z,27.10
2019-02-23T04:12:17.186Z,27.00
2019-02-23T04:14:46.966Z,27.07
2019-02-23T04:17:15.892Z,26.97
2019-02-23T04:19:45.093Z,27.80
2019-02-23T04:22:14.210Z,27.62
2019-02-23T04:24:43.418Z,27.65
2019-02-23T04:27:12.572Z,27.67
2019-02-23T04:29:41.453Z,27.93
2019-02-23T04:32:10.427Z,28.17
2019-02-23T04:34:39.296Z,27.73
2019-02-23T04:37:08.349Z,27.50
2019-02-23T04:39:37.530Z,30.08
2019-02-23T04:42:06.538Z,28.27
2019-02-23T04:44:35.584Z,27.45
2019-02-23T04:47:04.576Z,28.60
2019-02-23T04:49:33.530Z,28.00
2019-02-23T04:52:02.780Z,26.90
2019-02-23T04:54:37.412Z,29.50
2019-02-23T04:57:06.267Z,28.20
2019-02-23T04:59:35.107Z,28.42
2019-02-23T05:02:04.136Z,30.27
2019-02-23T05:04:33.132Z,28.47
2019-02-23T05:07:04.317Z,28.73
2019-02-23T05:09:33.312Z,26.65
2019-02-23T05:12:02.352Z,29.33
2019-02-23T05:14:31.240Z,30.73
2019-02-23T05:17:00.813Z,30.05
2019-02-23T05:19:29.736Z,28.87
2019-02-23T05:21:58.704Z,30.75
2019-02-23T05:24:27.798Z,30.60
2019-02-23T05:26:56.685Z,31.93
2019-02-23T05:29:25.544Z,28.87
2019-02-23T05:31:54.556Z,30.60
2019-02-23T05:34:23.446Z,30.05
2019-02-23T05:36:52.373Z,28.50
2019-02-23T05:39:21.260Z,30.10
2019-02-23T05:41:50.212Z,28.30
2019-02-23T05:44:19.182Z,30.57
2019-02-23T05:46:48.104Z,30.02
2019-02-23T05:49:16.991Z,31.12
2019-02-23T05:51:45.882Z,33.25
2019-02-23T05:54:14.780Z,30.25
2019-02-23T05:56:43.724Z,30.32
2019-02-23T05:59:12.639Z,31.20
2019-02-23T06:01:41.496Z,30.02
2019-02-23T06:04:10.482Z,29.95
2019-02-23T06:06:39.395Z,31.07
2019-02-23T06:09:08.266Z,30.20
2019-02-23T06:11:37.207Z,31.65
2019-02-23T06:14:06.321Z,31.42
2019-02-23T06:16:35.240Z,29.80
2019-02-23T06:19:04.157Z,29.35
2019-02-23T06:21:33.103Z,31.25
2019-02-23T06:24:02.058Z,31.70
2019-02-23T06:26:30.973Z,30.80
2019-02-23T06:28:59.941Z,30.32
2019-02-23T06:31:29.153Z,31.60
2019-02-23T06:33:58.208Z,32.37
2019-02-23T06:36:27.142Z,30.73
2019-02-23T06:38:56.072Z,32.08
2019-02-23T06:41:25.117Z,32.93
2019-02-23T06:43:54.029Z,33.92
2019-02-23T06:46:23.068Z,31.80
2019-02-23T06:48:51.915Z,30.55
2019-02-23T06:51:20.780Z,30.72
2019-02-23T06:53:49.706Z,30.97
2019-02-23T06:56:18.704Z,29.77
2019-02-23T06:58:47.652Z,30.80
2019-02-23T07:01:16.622Z,30.68
2019-02-23T07:03:45.748Z,29.40
2019-02-23T07:06:14.620Z,30.77
2019-02-23T07:08:43.464Z,29.15
2019-02-23T07:11:13.453Z,30.92
2019-02-23T07:13:42.330Z,27.62
2019-02-23T07:16:11.171Z,28.95
2019-02-23T07:18:40.957Z,28.83
2019-02-23T07:21:09.901Z,27.93
2019-02-23T07:23:38.956Z,28.27
2019-02-23T07:26:07.968Z,28.32
2019-02-23T07:28:36.852Z,29.37
2019-02-23T07:31:05.812Z,25.82
2019-02-23T07:33:34.649Z,28.38
2019-02-23T07:36:03.621Z,26.52
2019-02-23T07:38:35.449Z,26.23
2019-02-23T07:41:03.492Z,25.80
2019-02-23T07:43:32.371Z,28.07
2019-02-23T07:46:01.269Z,24.23
2019-02-23T07:48:30.235Z,24.95
2019-02-23T07:50:59.144Z,25.92
2019-02-23T07:53:28.160Z,24.60
2019-02-23T07:55:57.180Z,23.55
2019-02-23T07:58:26.107Z,21.93
2019-02-23T08:00:55.005Z,22.73
2019-02-23T08:03:24.015Z,23.12
2019-02-23T08:05:52.869Z,22.58
2019-02-23T08:08:21.739Z,23.00
2019-02-23T08:10:51.074Z,22.80
2019-02-23T08:13:19.964Z,20.97
2019-02-23T08:15:48.824Z,21.05
2019-02-23T08:18:17.732Z,21.95
2019-02-23T08:20:46.711Z,22.62
2019-02-23T08:23:16.080Z,22.02
2019-02-23T08:25:45.005Z,21.37
2019-02-23T08:28:13.863Z,19.40
2019-02-23T08:30:42.728Z,18.62
2019-02-23T08:33:11.607Z,18.90
2019-02-23T08:35:40.547Z,20.25
2019-02-23T08:38:09.468Z,17.80
2019-02-23T08:40:38.671Z,18.98
2019-02-23T08:43:07.841Z,18.95
2019-02-23T08:45:36.784Z,20.35
2019-02-23T08:48:05.868Z,19.98
2019-02-23T08:50:34.992Z,18.65
2019-02-23T08:53:04.285Z,19.57
2019-02-23T08:55:33.300Z,20.40
2019-02-23T08:58:02.244Z,18.17
2019-02-23T09:00:31.224Z,19.70
2019-02-23T09:03:00.175Z,18.35
2019-02-23T09:05:29.116Z,18.17
2019-02-23T09:07:57.944Z,19.15
2019-02-23T09:10:26.836Z,18.23
2019-02-23T09:12:55.780Z,18.45
2019-02-23T09:15:24.729Z,17.62
2019-02-23T09:17:53.948Z,19.30
2019-02-23T09:20:29.287Z,19.05
2019-02-23T09:23:00.277Z,18.37
2019-02-23T09:25:24.519Z,19.17
2019-02-23T09:27:53.440Z,17.87
2019-02-23T09:30:22.349Z,18.10
2019-02-23T09:32:51.232Z,16.95
2019-02-23T09:35:20.209Z,16.90
2019-02-23T09:37:49.120Z,17.20
2019-02-23T09:40:18.311Z,16.02
2019-02-23T09:42:47.620Z,16.32
2019-02-23T09:45:16.606Z,15.85
2019-02-23T09:47:45.557Z,16.40
2019-02-23T09:50:14.592Z,16.17
2019-02-23T09:52:43.512Z,15.23
2019-02-23T09:55:12.548Z,14.33
2019-02-23T09:57:41.472Z,13.98
2019-02-23T10:00:10.891Z,12.75
2019-02-23T10:02:39.975Z,11.85
2019-02-23T10:05:09.617Z,11.50
2019-02-23T10:07:38.551Z,12.82
2019-02-23T10:10:08.105Z,11.88
2019-02-23T10:12:37.141Z,11.03
2019-02-23T10:15:06.489Z,11.30
2019-02-23T10:17:35.524Z,12.13
2019-02-23T10:20:04.817Z,11.83
2019-02-23T10:22:33.808Z,10.95
2019-02-23T10:25:02.759Z,9.88
2019-02-23T10:27:31.960Z,9.03
2019-02-23T10:30:00.805Z,9.97
2019-02-23T10:32:29.832Z,10.43
2019-02-23T10:34:59.084Z,9.13
2019-02-23T10:37:28.116Z,9.75
2019-02-23T10:39:57.140Z,9.10
2019-02-23T10:42:26.000Z,9.83
2019-02-23T10:44:55.340Z,10.03
2019-02-23T10:47:24.383Z,9.50
2019-02-23T10:49:53.320Z,8.65
2019-02-23T10:52:22.356Z,9.15
2019-02-23T10:54:51.349Z,8.93
2019-02-23T10:57:20.374Z,9.80
2019-02-23T10:59:49.212Z,10.50
2019-02-23T11:02:18.254Z,9.18
2019-02-23T11:04:47.413Z,8.80
2019-02-23T11:07:17.129Z,11.13
2019-02-23T11:09:46.145Z,8.43
2019-02-23T11:12:15.095Z,9.23
2019-02-23T11:14:44.015Z,7.95
2019-02-23T11:17:13.033Z,8.73
2019-02-23T11:19:42.319Z,8.95
2019-02-23T11:22:12.019Z,9.93
2019-02-23T11:24:41.039Z,9.48
2019-02-23T11:27:10.016Z,9.37
2019-02-23T11:29:39.061Z,9.95
2019-02-23T11:32:08.050Z,8.78
2019-02-23T11:34:36.929Z,10.13
2019-02-23T11:37:05.896Z,7.60
2019-02-23T11:39:34.872Z,8.05
2019-02-23T11:42:03.825Z,8.38
2019-02-23T11:44:32.701Z,9.80
2019-02-23T11:47:01.624Z,9.38
2019-02-23T11:49:30.547Z,9.80
2019-02-23T11:51:59.463Z,8.63
2019-02-23T11:54:28.387Z,7.90
2019-02-23T11:56:57.241Z,8.60
2019-02-23T11:59:26.163Z,7.42
2019-02-23T12:01:55.159Z,7.45
2019-02-23T12:04:24.013Z,7.12
2019-02-23T12:06:52.945Z,6.28
2019-02-23T12:09:21.881Z,7.17
2019-02-23T12:11:50.712Z,8.48
2019-02-23T12:14:19.633Z,5.28
2019-02-23T12:16:48.556Z,7.05
2019-02-23T12:19:17.446Z,6.97
2019-02-23T12:21:46.708Z,5.97
2019-02-23T12:24:15.564Z,5.60
2019-02-23T12:26:44.413Z,6.35
2019-02-23T12:29:13.244Z,6.03
2019-02-23T12:31:42.503Z,4.97
2019-02-23T12:34:11.325Z,6.67
2019-02-23T12:36:40.155Z,5.53
2019-02-23T12:39:09.008Z,5.72
2019-02-23T12:41:37.848Z,7.22
2019-02-23T12:44:06.844Z,5.50
2019-02-23T12:46:35.783Z,6.53
2019-02-23T12:49:04.747Z,6.30
2019-02-23T12:51:33.744Z,7.30
2019-02-23T12:54:02.720Z,6.22
2019-02-23T12:56:32.093Z,7.45
2019-02-23T12:59:01.168Z,5.78
2019-02-23T13:01:30.322Z,5.83
2019-02-23T13:03:59.225Z,6.62
2019-02-23T13:06:28.245Z,7.70
2019-02-23T13:09:26.131Z,5.75
2019-02-23T13:12:14.445Z,6.10
2019-02-23T13:15:00.711Z,6.35
2019-02-23T13:18:12.336Z,6.80
2019-02-23T13:21:37.697Z,6.40
2019-02-23T13:24:33.701Z,10.50
2019-02-23T13:27:55.804Z,6.77
2019-02-23T13:30:50.557Z,6.97
2019-02-23T13:33:54.820Z,5.70
2019-02-23T13:37:06.868Z,7.78
2019-02-23T13:40:07.608Z,7.28
2019-02-23T13:43:05.698Z,7.65
2019-02-23T13:46:05.818Z,6.67
2019-02-23T13:49:37.208Z,6.45
2019-02-23T13:52:53.160Z,7.70
2019-02-23T13:55:58.520Z,7.40
2019-02-23T13:58:54.139Z,7.47
2019-02-23T14:01:45.968Z,7.37
2019-02-23T14:04:59.300Z,8.70
2019-02-23T14:08:11.163Z,7.97
2019-02-23T14:11:48.858Z,9.28
2019-02-23T14:14:33.240Z,10.72
2019-02-23T14:17:31.420Z,8.90
2019-02-23T14:20:37.543Z,9.93
2019-02-23T14:23:18.951Z,8.40
2019-02-23T14:26:33.136Z,8.40
2019-02-23T14:29:33.110Z,7.85
2019-02-23T14:32:37.304Z,7.97
2019-02-23T14:35:24.624Z,8.50
2019-02-23T14:38:21.252Z,9.13
2019-02-23T14:41:28.548Z,7.65
2019-02-23T14:44:27.734Z,9.08
2019-02-23T14:47:20.868Z,9.45
2019-02-23T14:50:14.375Z,8.95
2019-02-23T14:53:02.857Z,10.48
2019-02-23T14:56:08.051Z,8.93
2019-02-23T14:59:42.468Z,8.05
2019-02-23T15:02:52.524Z,7.95
2019-02-23T15:05:50.181Z,7.47
2019-02-23T15:08:50.847Z,7.60
2019-02-23T15:11:59.136Z,8.70
2019-02-23T15:14:57.776Z,7.42
2019-02-23T15:18:16.284Z,8.60
2019-02-23T15:21:10.395Z,7.73
2019-02-23T15:24:17.950Z,6.73
2019-02-23T15:27:43.259Z,7.53
2019-02-23T15:30:36.917Z,7.90
2019-02-23T15:33:48.780Z,8.00
2019-02-23T15:36:46.287Z,6.58
2019-02-23T15:40:10.807Z,8.03
2019-02-23T15:43:30.266Z,7.43
2019-02-23T15:46:42.111Z,8.60
2019-02-23T15:49:29.765Z,7.15
2019-02-23T15:51:59.578Z,6.72
2019-02-23T15:54:29.332Z,7.45
2019-02-23T15:56:58.464Z,6.27
2019-02-23T15:59:27.513Z,6.33
2019-02-23T16:01:56.521Z,8.20
2019-02-23T16:04:25.457Z,6.87
2019-02-23T16:06:54.738Z,7.20
2019-02-23T16:09:23.643Z,7.65
2019-02-23T16:11:52.592Z,7.92
2019-02-23T16:14:21.467Z,8.03
2019-02-23T16:16:50.444Z,7.30
2019-02-23T16:19:19.501Z,8.38
2019-02-23T16:21:48.436Z,7.53
2019-02-23T16:24:17.395Z,9.15
2019-02-23T16:26:46.398Z,6.40
2019-02-23T16:29:19.699Z,7.05
2019-02-23T16:31:48.648Z,8.78
2019-02-23T16:34:17.811Z,7.87
2019-02-23T16:36:46.721Z,8.88
2019-02-23T16:39:15.868Z,9.28
2019-02-23T16:41:44.928Z,8.03
2019-02-23T16:44:13.900Z,9.13
2019-02-23T16:46:46.177Z,10.18
2019-02-23T16:49:13.516Z,9.90
2019-02-23T16:51:42.450Z,11.08
2019-02-23T16:54:11.399Z,10.40
2019-02-23T16:56:40.418Z,11.25
2019-02-23T16:59:09.339Z,9.88
2019-02-23T17:01:38.220Z,11.23
2019-02-23T17:04:07.157Z,14.28
2019-02-23T17:06:36.408Z,11.22
2019-02-23T17:09:06.443Z,14.03
2019-02-23T17:11:35.376Z,10.40
2019-02-23T17:14:04.424Z,13.60
2019-02-23T17:16:33.432Z,13.60
2019-02-23T17:19:02.291Z,14.47
2019-02-23T17:21:31.220Z,14.53
2019-02-23T17:24:00.141Z,11.75
2019-02-23T17:26:29.283Z,13.60
2019-02-23T17:29:00.117Z,13.05
2019-02-23T17:31:29.077Z,11.87
2019-02-23T17:33:58.049Z,12.23
2019-02-23T17:36:27.004Z,12.63
2019-02-23T17:38:55.955Z,12.03
2019-02-23T17:41:25.280Z,11.20
2019-02-23T17:43:54.311Z,10.75
2019-02-23T17:46:23.292Z,12.18
2019-02-23T17:48:52.222Z,11.85
2019-02-23T17:51:21.112Z,13.05
2019-02-23T17:53:50.022Z,13.83
2019-02-23T17:56:18.866Z,14.23
2019-02-23T17:58:47.846Z,12.07
2019-02-23T18:01:16.688Z,14.23
2019-02-23T18:03:45.560Z,11.40
2019-02-23T18:06:14.548Z,10.55
2019-02-23T18:08:43.399Z,11.30
2019-02-23T18:11:12.247Z,11.88
2019-02-23T18:13:41.235Z,15.30
2019-02-23T18:16:10.101Z,14.30
2019-02-23T18:18:39.289Z,14.58
2019-02-23T18:21:08.292Z,13.48
2019-02-23T18:23:37.393Z,13.48
2019-02-23T18:26:06.395Z,12.05
2019-02-23T18:28:35.462Z,11.57
2019-02-23T18:31:04.404Z,11.88
2019-02-23T18:33:33.287Z,12.73
2019-02-23T18:36:02.157Z,13.90
2019-02-23T18:38:31.036Z,14.53
2019-02-23T18:40:59.897Z,12.18
2019-02-23T18:43:28.804Z,11.05
2019-02-23T18:45:58.103Z,12.50
2019-02-23T18:48:27.131Z,11.90
2019-02-23T18:50:56.049Z,11.53
2019-02-23T18:53:25.012Z,11.33
2019-02-23T18:55:53.980Z,11.83
2019-02-23T18:58:22.937Z,12.27
2019-02-23T19:00:51.904Z,13.75
2019-02-23T19:03:20.868Z,13.20
2019-02-23T19:05:50.282Z,14.87
2019-02-23T19:08:19.287Z,15.32
2019-02-23T19:10:48.284Z,15.38
2019-02-23T19:13:17.392Z,14.68
2019-02-23T19:15:46.452Z,14.50
2019-02-23T19:18:15.329Z,14.47
2019-02-23T19:20:46.403Z,15.15
2019-02-23T19:23:15.547Z,16.45
2019-02-23T19:25:44.556Z,15.03
2019-02-23T19:28:13.955Z,15.68
2019-02-23T19:30:42.905Z,16.02
2019-02-23T19:33:11.845Z,13.30
2019-02-23T19:35:40.917Z,13.83
2019-02-23T19:38:10.045Z,14.28
2019-02-23T19:40:38.904Z,15.53
2019-02-23T19:43:08.508Z,16.82
2019-02-23T19:45:37.961Z,18.62
2019-02-23T19:48:06.831Z,15.58
2019-02-23T19:50:39.257Z,14.90
2019-02-23T19:53:08.273Z,14.30
2019-02-23T19:55:37.525Z,15.20
2019-02-23T19:58:06.489Z,14.25
2019-02-23T20:00:35.404Z,15.98
2019-02-23T20:03:04.675Z,16.67
2019-02-23T20:05:33.659Z,16.90
2019-02-23T20:08:02.696Z,16.62
2019-02-23T20:10:31.596Z,15.45
2019-02-23T20:13:00.454Z,16.70
2019-02-23T20:15:29.420Z,14.13
2019-02-23T20:17:58.725Z,14.87
2019-02-23T20:20:27.674Z,15.08
2019-02-23T20:22:56.704Z,14.78
2019-02-23T20:25:25.783Z,15.10
2019-02-23T20:27:54.862Z,13.13
2019-02-23T20:30:23.785Z,15.48
2019-02-23T20:32:52.639Z,13.72
2019-02-23T20:35:21.710Z,13.72
2019-02-23T20:37:50.594Z,15.68
2019-02-23T20:40:19.508Z,15.97
2019-02-23T20:42:48.355Z,17.15
2019-02-23T20:45:17.305Z,15.70
2019-02-23T20:47:46.359Z,19.12
2019-02-23T20:50:15.367Z,15.60
2019-02-23T20:52:44.239Z,17.30
2019-02-23T20:55:13.399Z,15.98
2019-02-23T20:57:42.292Z,16.50
2019-02-23T21:00:11.353Z,16.35
2019-02-23T21:02:40.433Z,16.27
2019-02-23T21:05:09.820Z,15.85
2019-02-23T21:07:40.077Z,17.98
2019-02-23T21:10:09.177Z,17.17
2019-02-23T21:12:38.160Z,18.40
2019-02-23T21:15:08.712Z,16.70
2019-02-23T21:17:37.797Z,18.12
2019-02-23T21:20:08.347Z,15.85
2019-02-23T21:22:40.293Z,15.78
2019-02-23T21:25:09.823Z,16.17
2019-02-23T21:27:38.756Z,15.53
2019-02-23T21:30:08.276Z,16.70
2019-02-23T21:32:37.276Z,17.42
2019-02-23T21:35:06.205Z,16.15
2019-02-23T21:37:35.080Z,15.95
2019-02-23T21:40:04.147Z,16.70
2019-02-23T21:42:33.407Z,18.55
2019-02-23T21:45:02.365Z,16.17
2019-02-23T21:47:31.297Z,15.50
2019-02-23T21:50:00.333Z,15.28
2019-02-23T21:52:29.364Z,15.85
2019-02-23T21:54:58.437Z,14.75
2019-02-23T21:57:27.441Z,15.23
2019-02-23T21:59:57.302Z,14.50
2019-02-23T22:02:26.365Z,14.95
2019-02-23T22:04:55.299Z,13.80
2019-02-23T22:07:24.226Z,14.65
2019-02-23T22:09:53.266Z,14.85
2019-02-23T22:12:22.266Z,13.53
2019-02-23T22:14:51.473Z,13.35
2019-02-23T22:17:20.401Z,13.10
2019-02-23T22:19:49.407Z,14.43
2019-02-23T22:22:18.483Z,13.00
2019-02-23T22:24:47.404Z,12.45
2019-02-23T22:27:16.350Z,13.80
2019-02-23T22:29:45.624Z,14.58
2019-02-23T22:32:14.666Z,14.13
2019-02-23T22:34:43.528Z,16.40
2019-02-23T22:37:12.546Z,14.87
2019-02-23T22:39:41.530Z,13.38
2019-02-23T22:42:10.517Z,13.93
2019-02-23T22:44:39.544Z,14.20
2019-02-23T22:47:08.517Z,15.10
2019-02-23T22:49:37.532Z,13.48
2019-02-23T22:52:06.540Z,15.63
2019-02-23T22:54:35.388Z,16.23
2019-02-23T22:57:04.494Z,16.70
2019-02-23T22:59:34.661Z,15.33
2019-02-23T23:02:03.756Z,15.85
2019-02-23T23:04:33.101Z,13.60
2019-02-23T23:07:02.097Z,12.93
2019-02-23T23:09:30.948Z,12.05
2019-02-23T23:12:00.032Z,12.20
2019-02-23T23:14:28.944Z,13.35
2019-02-23T23:16:57.963Z,12.33
2019-02-23T23:19:26.877Z,12.60
2019-02-23T23:21:56.084Z,14.45
2019-02-23T23:24:25.062Z,13.68
2019-02-23T23:26:53.994Z,13.60
2019-02-23T23:29:22.940Z,14.18
2019-02-23T23:31:51.941Z,13.60
2019-02-23T23:34:20.904Z,13.83
2019-02-23T23:36:49.868Z,13.10
2019-02-23T23:39:18.799Z,14.93
2019-02-23T23:41:47.795Z,15.32
2019-02-23T23:44:16.972Z,14.30
2019-02-23T23:46:45.904Z,14.05
2019-02-23T23:49:14.812Z,14.53
2019-02-23T23:51:43.676Z,14.55
2019-02-23T23:54:12.656Z,13.98
2019-02-23T23:56:41.528Z,13.38
2019-02-23T23:59:10.366Z,14.95
